createdAt,value
2018-04-18T00:00:43.909Z,22.70
2018-04-18T00:01:43.907Z,23.90
2018-04-18T00:02:43.905Z,27.50
2018-04-18T00:03:43.896Z,27.40
2018-04-18T00:04:43.889Z,23.40
2018-04-18T00:05:43.886Z,24.40
2018-04-18T00:06:43.885Z,24.70
2018-04-18T00:07:43.878Z,25.60
2018-04-18T00:08:43.870Z,23.70
2018-04-18T00:09:43.861Z,25.00
2018-04-18T00:10:43.860Z,26.30
2018-04-18T00:11:43.852Z,23.50
2018-04-18T00:12:43.844Z,22.10
2018-04-18T00:13:43.839Z,23.30
2018-04-18T00:14:43.829Z,22.80
2018-04-18T00:15:43.827Z,22.90
2018-04-18T00:16:43.823Z,26.00
2018-04-18T00:17:43.827Z,24.90
2018-04-18T00:18:43.810Z,25.00
2018-04-18T00:19:43.802Z,24.50
2018-04-18T00:20:43.799Z,24.20
2018-04-18T00:21:43.794Z,24.10
2018-04-18T00:22:43.787Z,23.90
2018-04-18T00:23:43.780Z,25.40
2018-04-18T00:24:43.775Z,30.50
2018-04-18T00:25:43.774Z,32.50
2018-04-18T00:26:43.765Z,29.60
2018-04-18T00:27:43.762Z,32.60
2018-04-18T00:28:43.746Z,29.00
2018-04-18T00:29:43.744Z,28.80
2018-04-18T00:30:43.737Z,26.90
2018-04-18T00:31:43.733Z,24.90
2018-04-18T00:32:43.731Z,28.20
2018-04-18T00:33:43.723Z,26.70
2018-04-18T00:34:44.514Z,27.20
2018-04-18T00:35:43.708Z,28.90
2018-04-18T00:36:43.699Z,24.40
2018-04-18T00:37:43.694Z,25.30
2018-04-18T00:38:43.691Z,25.70
2018-04-18T00:39:43.686Z,29.60
2018-04-18T00:40:43.679Z,28.50
2018-04-18T00:41:43.672Z,28.90
2018-04-18T00:42:43.665Z,27.60
2018-04-18T00:43:43.658Z,26.70
2018-04-18T00:44:43.662Z,26.50
2018-04-18T00:45:43.649Z,29.40
2018-04-18T00:46:43.645Z,26.20
2018-04-18T00:47:43.638Z,24.80
2018-04-18T00:48:43.631Z,23.60
2018-04-18T00:49:43.642Z,24.00
2018-04-18T00:50:43.620Z,24.40
2018-04-18T00:51:43.613Z,25.70
2018-04-18T00:52:43.608Z,25.50
2018-04-18T00:53:43.601Z,23.50
2018-04-18T00:54:43.596Z,25.30
2018-04-18T00:55:43.587Z,24.60
2018-04-18T00:56:43.585Z,24.10
2018-04-18T00:57:43.574Z,22.60
2018-04-18T00:58:43.574Z,25.00
2018-04-18T00:59:43.565Z,24.60
2018-04-18T01:00:43.556Z,25.10
2018-04-18T01:01:43.563Z,28.30
2018-04-18T01:02:43.546Z,26.00
2018-04-18T01:03:43.539Z,25.50
2018-04-18T01:04:43.588Z,24.50
2018-04-18T01:05:43.525Z,22.60
2018-04-18T01:06:43.534Z,24.50
2018-04-18T01:07:43.528Z,26.60
2018-04-18T01:08:43.533Z,28.30
2018-04-18T01:09:43.520Z,27.20
2018-04-18T01:10:43.515Z,26.50
2018-04-18T01:11:43.498Z,27.00
2018-04-18T01:12:43.503Z,27.40
2018-04-18T01:13:43.497Z,23.70
2018-04-18T01:14:43.480Z,26.40
2018-04-18T01:15:43.480Z,28.80
2018-04-18T01:16:43.467Z,26.20
2018-04-18T01:17:43.462Z,25.20
2018-04-18T01:18:43.466Z,25.00
2018-04-18T01:19:43.448Z,24.40
2018-04-18T01:20:43.443Z,25.20
2018-04-18T01:21:43.458Z,26.80
2018-04-18T01:22:43.431Z,24.40
2018-04-18T01:23:43.436Z,25.10
2018-04-18T01:24:43.431Z,31.00
2018-04-18T01:25:43.418Z,24.90
2018-04-18T01:26:43.416Z,26.40
2018-04-18T01:27:43.398Z,24.60
2018-04-18T01:28:43.394Z,26.50
2018-04-18T01:29:43.389Z,22.00
2018-04-18T01:30:43.379Z,20.80
2018-04-18T01:31:43.376Z,24.00
2018-04-18T01:32:43.367Z,27.20
2018-04-18T01:33:43.363Z,23.40
2018-04-18T01:34:43.354Z,25.10
2018-04-18T01:35:43.367Z,28.40
2018-04-18T01:36:43.354Z,28.50
2018-04-18T01:37:43.336Z,22.90
2018-04-18T01:38:43.332Z,21.00
2018-04-18T01:39:43.337Z,22.60
2018-04-18T01:40:43.327Z,25.40
2018-04-18T01:41:43.323Z,21.30
2018-04-18T01:42:43.316Z,23.50
2018-04-18T01:43:43.296Z,23.80
2018-04-18T01:44:43.302Z,26.60
2018-04-18T01:45:43.289Z,26.10
2018-04-18T01:46:43.284Z,30.60
2018-04-18T01:47:43.278Z,23.00
2018-04-18T01:48:43.286Z,25.50
2018-04-18T01:49:43.275Z,28.20
2018-04-18T01:50:43.254Z,27.80
2018-04-18T01:51:43.249Z,25.50
2018-04-18T01:52:43.242Z,32.50
2018-04-18T01:53:43.236Z,22.90
2018-04-18T01:54:43.232Z,24.30
2018-04-18T01:55:43.224Z,24.70
2018-04-18T01:56:43.218Z,26.80
2018-04-18T01:57:43.213Z,24.40
2018-04-18T01:58:43.215Z,25.30
2018-04-18T01:59:43.209Z,27.10
2018-04-18T02:00:43.192Z,26.10
2018-04-18T02:01:43.183Z,29.80
2018-04-18T02:02:43.178Z,26.00
2018-04-18T02:03:43.170Z,30.10
2018-04-18T02:04:43.165Z,28.10
2018-04-18T02:05:43.169Z,23.30
2018-04-18T02:06:43.152Z,26.70
2018-04-18T02:07:43.145Z,31.70
2018-04-18T02:08:43.149Z,26.50
2018-04-18T02:09:43.166Z,26.30
2018-04-18T02:10:43.126Z,26.70
2018-04-18T02:11:43.131Z,27.20
2018-04-18T02:12:43.124Z,27.10
2018-04-18T02:13:43.119Z,26.00
2018-04-18T02:14:43.100Z,28.80
2018-04-18T02:15:43.093Z,27.10
2018-04-18T02:16:43.086Z,25.50
2018-04-18T02:17:43.093Z,27.30
2018-04-18T02:18:43.083Z,25.50
2018-04-18T02:19:43.079Z,24.20
2018-04-18T02:20:43.061Z,29.60
2018-04-18T02:21:43.060Z,24.70
2018-04-18T02:22:43.049Z,25.00
2018-04-18T02:23:43.039Z,23.40
2018-04-18T02:24:43.047Z,24.00
2018-04-18T02:25:43.044Z,27.30
2018-04-18T02:26:43.024Z,27.60
2018-04-18T02:27:43.015Z,27.70
2018-04-18T02:28:43.007Z,25.70
2018-04-18T02:29:43.012Z,28.30
2018-04-18T02:30:42.993Z,26.00
2018-04-18T02:31:42.999Z,25.00
2018-04-18T02:32:42.981Z,25.60
2018-04-18T02:33:42.973Z,31.90
2018-04-18T02:34:42.970Z,26.20
2018-04-18T02:35:42.973Z,34.60
2018-04-18T02:36:42.956Z,28.10
2018-04-18T02:37:42.947Z,28.90
2018-04-18T02:38:42.966Z,27.30
2018-04-18T02:39:42.962Z,28.90
2018-04-18T02:40:42.940Z,29.30
2018-04-18T02:41:42.921Z,24.70
2018-04-18T02:42:42.914Z,23.90
2018-04-18T02:43:42.908Z,27.00
2018-04-18T02:44:42.902Z,25.00
2018-04-18T02:45:42.893Z,33.50
2018-04-18T02:46:42.888Z,31.00
2018-04-18T02:47:42.894Z,29.30
2018-04-18T02:48:42.876Z,26.30
2018-04-18T02:49:42.867Z,28.60
2018-04-18T02:50:42.872Z,27.80
2018-04-18T02:51:42.854Z,22.70
2018-04-18T02:52:42.846Z,27.10
2018-04-18T02:53:42.853Z,28.90
2018-04-18T02:54:42.853Z,27.30
2018-04-18T02:55:42.835Z,28.40
2018-04-18T02:56:42.831Z,27.30
2018-04-18T02:57:42.813Z,22.60
2018-04-18T02:58:42.824Z,31.80
2018-04-18T02:59:42.805Z,28.70
2018-04-18T03:00:42.795Z,27.80
2018-04-18T03:01:42.786Z,29.80
2018-04-18T03:02:42.782Z,34.40
2018-04-18T03:03:42.787Z,28.30
2018-04-18T03:04:42.772Z,26.50
2018-04-18T03:05:42.758Z,26.50
2018-04-18T03:06:42.760Z,29.00
2018-04-18T03:07:42.749Z,28.00
2018-04-18T03:08:42.756Z,29.20
2018-04-18T03:09:42.747Z,28.40
2018-04-18T03:10:42.730Z,28.00
2018-04-18T03:11:42.721Z,29.30
2018-04-18T03:12:42.723Z,29.40
2018-04-18T03:13:42.719Z,27.10
2018-04-18T03:14:42.700Z,30.00
2018-04-18T03:15:42.694Z,26.80
2018-04-18T03:16:42.686Z,29.70
2018-04-18T03:17:42.680Z,28.60
2018-04-18T03:18:42.671Z,26.70
2018-04-18T03:19:42.669Z,28.30
2018-04-18T03:20:42.659Z,23.80
2018-04-18T03:21:42.651Z,26.10
2018-04-18T03:22:42.655Z,26.70
2018-04-18T03:23:42.639Z,27.80
2018-04-18T03:24:42.645Z,28.00
2018-04-18T03:25:42.640Z,25.80
2018-04-18T03:26:42.619Z,27.10
2018-04-18T03:27:42.622Z,26.20
2018-04-18T03:28:42.609Z,26.50
2018-04-18T03:29:42.598Z,26.70
2018-04-18T03:30:42.590Z,31.00
2018-04-18T03:31:42.598Z,30.00
2018-04-18T03:32:42.578Z,28.90
2018-04-18T03:33:42.590Z,31.60
2018-04-18T03:34:42.578Z,31.60
2018-04-18T03:35:42.570Z,37.00
2018-04-18T03:36:42.551Z,34.30
2018-04-18T03:37:42.541Z,28.50
2018-04-18T03:38:42.550Z,33.30
2018-04-18T03:39:42.531Z,29.20
2018-04-18T03:40:42.534Z,29.70
2018-04-18T03:41:42.515Z,27.50
2018-04-18T03:42:42.520Z,29.60
2018-04-18T03:43:42.506Z,28.90
2018-04-18T03:44:42.505Z,30.10
2018-04-18T03:45:42.490Z,26.40
2018-04-18T03:46:42.483Z,27.40
2018-04-18T03:47:42.487Z,25.90
2018-04-18T03:48:42.478Z,26.50
2018-04-18T03:49:42.462Z,28.80
2018-04-18T03:50:42.452Z,28.40
2018-04-18T03:51:42.445Z,28.60
2018-04-18T03:52:42.441Z,29.80
2018-04-18T03:53:42.442Z,31.50
2018-04-18T03:54:42.447Z,29.80
2018-04-18T03:55:42.420Z,27.40
2018-04-18T03:56:42.410Z,28.30
2018-04-18T03:57:42.402Z,31.90
2018-04-18T03:58:42.396Z,29.90
2018-04-18T03:59:42.391Z,28.50
2018-04-18T04:00:42.381Z,33.90
2018-04-18T04:01:42.379Z,27.90
2018-04-18T04:02:42.368Z,29.20
2018-04-18T04:03:42.365Z,27.10
2018-04-18T04:04:42.356Z,28.20
2018-04-18T04:05:42.349Z,34.00
2018-04-18T04:06:42.342Z,29.30
2018-04-18T04:07:42.336Z,29.70
2018-04-18T04:08:42.337Z,30.50
2018-04-18T04:09:42.327Z,30.30
2018-04-18T04:10:42.328Z,27.20
2018-04-18T04:11:42.324Z,31.80
2018-04-18T04:12:42.300Z,32.90
2018-04-18T04:13:42.297Z,36.00
2018-04-18T04:14:42.303Z,37.40
2018-04-18T04:15:42.289Z,33.00
2018-04-18T04:16:42.268Z,38.70
2018-04-18T04:17:42.264Z,37.20
2018-04-18T04:18:42.259Z,39.40
2018-04-18T04:19:42.253Z,34.50
2018-04-18T04:20:42.258Z,37.90
2018-04-18T04:21:42.237Z,34.00
2018-04-18T04:22:42.240Z,37.30
2018-04-18T04:23:42.220Z,36.80
2018-04-18T04:24:42.225Z,39.60
2018-04-18T04:25:42.209Z,37.20
2018-04-18T04:26:42.210Z,33.80
2018-04-18T04:27:42.204Z,36.10
2018-04-18T04:28:42.188Z,38.70
2018-04-18T04:29:42.180Z,36.50
2018-04-18T04:30:42.172Z,38.90
2018-04-18T04:31:42.167Z,40.50
2018-04-18T04:32:42.157Z,38.80
2018-04-18T04:33:42.150Z,40.10
2018-04-18T04:34:42.144Z,35.70
2018-04-18T04:35:42.136Z,35.90
2018-04-18T04:36:42.131Z,37.50
2018-04-18T04:37:42.122Z,40.30
2018-04-18T04:38:42.128Z,34.10
2018-04-18T04:39:42.120Z,40.80
2018-04-18T04:40:42.112Z,39.80
2018-04-18T04:41:42.091Z,37.40
2018-04-18T04:42:42.088Z,37.80
2018-04-18T04:43:42.092Z,34.90
2018-04-18T04:44:42.074Z,37.80
2018-04-18T04:45:42.063Z,36.00
2018-04-18T04:46:42.071Z,35.30
2018-04-18T04:47:42.052Z,39.10
2018-04-18T04:48:42.043Z,42.70
2018-04-18T04:49:42.038Z,44.10
2018-04-18T04:50:42.030Z,41.50
2018-04-18T04:51:42.024Z,40.90
2018-04-18T04:52:42.019Z,39.30
2018-04-18T04:53:42.021Z,37.20
2018-04-18T04:54:42.000Z,45.60
2018-04-18T04:55:42.000Z,40.30
2018-04-18T04:56:41.999Z,39.00
2018-04-18T04:57:41.981Z,37.90
2018-04-18T04:58:41.973Z,37.80
2018-04-18T04:59:42.040Z,42.70
2018-04-18T05:00:41.969Z,37.70
2018-04-18T05:01:41.960Z,36.30
2018-04-18T05:02:41.947Z,35.80
2018-04-18T05:03:41.961Z,37.20
2018-04-18T05:04:41.950Z,36.50
2018-04-18T05:05:41.925Z,36.60
2018-04-18T05:06:41.916Z,33.80
2018-04-18T05:07:41.922Z,35.90
2018-04-18T05:08:41.902Z,40.20
2018-04-18T05:09:41.910Z,35.70
2018-04-18T05:10:41.888Z,43.30
2018-04-18T05:11:41.895Z,32.80
2018-04-18T05:12:41.885Z,43.00
2018-04-18T05:13:41.881Z,36.10
2018-04-18T05:14:41.861Z,38.80
2018-04-18T05:15:41.868Z,33.50
2018-04-18T05:16:41.850Z,33.30
2018-04-18T05:17:41.844Z,31.90
2018-04-18T05:18:41.838Z,33.10
2018-04-18T05:19:41.841Z,34.50
2018-04-18T05:20:41.823Z,36.80
2018-04-18T05:21:41.824Z,37.70
2018-04-18T05:22:41.812Z,32.90
2018-04-18T05:23:41.808Z,33.40
2018-04-18T05:24:41.800Z,39.10
2018-04-18T05:25:41.795Z,36.10
2018-04-18T05:26:41.789Z,38.20
2018-04-18T05:27:41.795Z,35.70
2018-04-18T05:28:41.775Z,42.10
2018-04-18T05:29:41.772Z,41.90
2018-04-18T05:30:41.769Z,43.20
2018-04-18T05:31:41.758Z,44.00
2018-04-18T05:32:41.764Z,35.40
2018-04-18T05:33:41.749Z,34.90
2018-04-18T05:34:41.740Z,37.40
2018-04-18T05:35:41.738Z,34.00
2018-04-18T05:36:41.730Z,29.00
2018-04-18T05:37:41.725Z,33.30
2018-04-18T05:38:41.732Z,35.10
2018-04-18T05:39:41.716Z,39.20
2018-04-18T05:40:41.712Z,36.40
2018-04-18T05:41:41.704Z,33.10
2018-04-18T05:42:41.724Z,35.20
2018-04-18T05:43:41.708Z,37.10
2018-04-18T05:44:41.689Z,35.70
2018-04-18T05:45:41.696Z,38.40
2018-04-18T05:46:41.679Z,35.00
2018-04-18T05:47:41.692Z,34.30
2018-04-18T05:48:41.694Z,36.50
2018-04-18T05:49:41.665Z,34.00
2018-04-18T05:50:41.674Z,37.80
2018-04-18T05:51:41.667Z,33.20
2018-04-18T05:52:41.662Z,36.10
2018-04-18T05:53:41.644Z,36.90
2018-04-18T05:54:41.655Z,39.30
2018-04-18T05:55:41.646Z,38.50
2018-04-18T05:56:41.642Z,38.90
2018-04-18T05:57:41.707Z,41.60
2018-04-18T05:58:41.625Z,40.30
2018-04-18T05:59:41.625Z,49.70
2018-04-18T06:00:41.622Z,49.70
2018-04-18T06:01:41.626Z,52.60
2018-04-18T06:02:41.610Z,45.90
2018-04-18T06:03:41.595Z,48.90
2018-04-18T06:04:41.603Z,57.20
2018-04-18T06:05:41.584Z,50.00
2018-04-18T06:06:41.577Z,52.20
2018-04-18T06:07:41.577Z,59.00
2018-04-18T06:08:41.578Z,55.80
2018-04-18T06:09:41.564Z,53.00
2018-04-18T06:10:41.559Z,58.60
2018-04-18T06:11:41.553Z,51.20
2018-04-18T06:12:41.558Z,58.70
2018-04-18T06:13:41.555Z,49.60
2018-04-18T06:14:41.715Z,51.40
2018-04-18T06:15:41.545Z,52.30
2018-04-18T06:16:41.542Z,50.50
2018-04-18T06:17:41.522Z,49.20
2018-04-18T06:18:41.524Z,51.30
2018-04-18T06:19:41.508Z,51.20
2018-04-18T06:20:41.505Z,49.20
2018-04-18T06:21:41.499Z,48.60
2018-04-18T06:22:41.501Z,45.80
2018-04-18T06:23:41.485Z,47.20
2018-04-18T06:24:41.481Z,44.60
2018-04-18T06:25:41.486Z,38.50
2018-04-18T06:26:41.468Z,42.60
2018-04-18T06:27:41.469Z,41.60
2018-04-18T06:28:41.468Z,40.90
2018-04-18T06:29:41.455Z,44.90
2018-04-18T06:30:41.447Z,43.20
2018-04-18T06:31:41.459Z,38.10
2018-04-18T06:32:41.451Z,38.20
2018-04-18T06:33:41.472Z,34.80
2018-04-18T06:34:41.430Z,34.50
2018-04-18T06:35:41.425Z,34.80
2018-04-18T06:36:41.422Z,35.60
2018-04-18T06:37:41.425Z,40.10
2018-04-18T06:38:41.411Z,39.40
2018-04-18T06:39:41.418Z,37.20
2018-04-18T06:40:41.413Z,36.90
2018-04-18T06:41:41.399Z,37.80
2018-04-18T06:42:41.395Z,35.30
2018-04-18T06:43:41.391Z,34.60
2018-04-18T06:44:41.384Z,38.20
2018-04-18T06:45:41.398Z,35.70
2018-04-18T06:46:41.388Z,33.40
2018-04-18T06:47:41.372Z,34.30
2018-04-18T06:48:41.382Z,37.30
2018-04-18T06:49:41.377Z,35.10
2018-04-18T06:50:41.370Z,40.10
2018-04-18T06:51:41.354Z,35.90
2018-04-18T06:52:41.350Z,37.60
2018-04-18T06:53:41.344Z,40.20
2018-04-18T06:54:41.357Z,36.00
2018-04-18T06:55:41.347Z,36.00
2018-04-18T06:56:41.331Z,34.90
2018-04-18T06:57:41.345Z,37.40
2018-04-18T06:58:41.322Z,38.50
2018-04-18T06:59:41.320Z,43.60
2018-04-18T07:00:41.327Z,35.50
2018-04-18T07:01:41.307Z,38.80
2018-04-18T07:02:41.307Z,36.00
2018-04-18T07:03:41.305Z,37.10
2018-04-18T07:04:41.294Z,36.60
2018-04-18T07:05:41.296Z,36.10
2018-04-18T07:06:41.286Z,37.40
2018-04-18T07:07:41.281Z,39.20
2018-04-18T07:08:41.279Z,37.00
2018-04-18T07:09:41.361Z,36.20
2018-04-18T07:10:42.190Z,36.50
2018-04-18T07:11:42.220Z,36.10
2018-04-18T07:12:41.265Z,35.40
2018-04-18T07:13:42.337Z,36.20
2018-04-18T07:14:41.274Z,34.80
2018-04-18T07:15:41.253Z,33.90
2018-04-18T07:16:43.173Z,34.40
2018-04-18T07:17:41.283Z,37.90
2018-04-18T07:18:41.238Z,33.00
2018-04-18T07:19:41.232Z,33.90
2018-04-18T07:20:41.229Z,33.60
2018-04-18T07:21:41.224Z,33.60
2018-04-18T07:22:41.218Z,35.70
2018-04-18T07:23:41.218Z,39.30
2018-04-18T07:24:41.227Z,36.10
2018-04-18T07:25:41.208Z,32.10
2018-04-18T07:26:41.206Z,34.80
2018-04-18T07:27:41.229Z,33.30
2018-04-18T07:28:41.194Z,33.00
2018-04-18T07:29:41.197Z,33.30
2018-04-18T07:30:41.187Z,34.50
2018-04-18T07:31:41.187Z,33.60
2018-04-18T07:32:41.191Z,31.40
2018-04-18T07:33:41.181Z,33.80
2018-04-18T07:34:41.178Z,34.70
2018-04-18T07:35:41.174Z,39.20
2018-04-18T07:36:41.170Z,33.60
2018-04-18T07:37:41.167Z,36.40
2018-04-18T07:38:41.176Z,36.30
2018-04-18T07:39:41.164Z,38.50
2018-04-18T07:40:41.161Z,43.00
2018-04-18T07:41:41.157Z,39.60
2018-04-18T07:42:41.154Z,41.90
2018-04-18T07:43:41.152Z,42.50
2018-04-18T07:44:41.152Z,43.00
2018-04-18T07:45:41.147Z,41.70
2018-04-18T07:46:41.177Z,42.90
2018-04-18T07:47:41.145Z,44.50
2018-04-18T07:48:41.140Z,43.00
2018-04-18T07:49:41.137Z,44.10
2018-04-18T07:50:41.146Z,41.50
2018-04-18T07:51:41.134Z,41.60
2018-04-18T07:52:41.138Z,40.30
2018-04-18T07:53:41.130Z,44.20
2018-04-18T07:54:41.141Z,41.50
2018-04-18T07:55:41.129Z,38.40
2018-04-18T07:56:41.127Z,38.00
2018-04-18T07:57:41.136Z,38.30
2018-04-18T07:58:41.126Z,38.10
2018-04-18T07:59:41.132Z,38.00
2018-04-18T08:00:41.126Z,34.70
2018-04-18T08:01:41.132Z,33.70
2018-04-18T08:02:41.120Z,37.00
2018-04-18T08:03:41.131Z,37.70
2018-04-18T08:04:41.129Z,33.50
2018-04-18T08:05:41.118Z,34.70
2018-04-18T08:06:41.117Z,30.00
2018-04-18T08:07:41.119Z,35.70
2018-04-18T08:08:41.128Z,35.10
2018-04-18T08:09:41.119Z,28.50
2018-04-18T08:10:41.122Z,24.60
2018-04-18T08:11:41.121Z,28.30
2018-04-18T08:12:41.121Z,25.60
2018-04-18T08:13:41.136Z,27.80
2018-04-18T08:14:41.125Z,25.10
2018-04-18T08:15:41.128Z,27.50
2018-04-18T08:16:41.128Z,28.70
2018-04-18T08:17:41.131Z,26.20
2018-04-18T08:18:41.135Z,27.20
2018-04-18T08:19:41.138Z,24.70
2018-04-18T08:20:41.142Z,23.10
2018-04-18T08:21:41.165Z,21.50
2018-04-18T08:22:41.160Z,24.40
2018-04-18T08:23:41.153Z,20.70
2018-04-18T08:24:41.167Z,22.20
2018-04-18T08:25:41.161Z,23.60
2018-04-18T08:26:41.180Z,19.90
2018-04-18T08:27:41.173Z,22.60
2018-04-18T08:28:41.176Z,18.80
2018-04-18T08:29:41.183Z,25.10
2018-04-18T08:30:41.198Z,23.90
2018-04-18T08:31:41.192Z,22.00
2018-04-18T08:32:41.198Z,20.30
2018-04-18T08:33:41.214Z,20.20
2018-04-18T08:34:41.222Z,21.10
2018-04-18T08:35:41.214Z,20.80
2018-04-18T08:36:41.233Z,20.20
2018-04-18T08:37:41.227Z,19.10
2018-04-18T08:38:41.234Z,19.90
2018-04-18T08:39:41.243Z,21.20
2018-04-18T08:40:41.247Z,19.90
2018-04-18T08:41:41.259Z,20.10
2018-04-18T08:42:41.261Z,20.80
2018-04-18T08:43:41.295Z,17.80
2018-04-18T08:44:41.274Z,18.20
2018-04-18T08:45:41.283Z,17.60
2018-04-18T08:46:41.300Z,17.20
2018-04-18T08:47:41.295Z,18.90
2018-04-18T08:48:41.301Z,16.80
2018-04-18T08:49:41.308Z,19.50
2018-04-18T08:50:41.328Z,15.50
2018-04-18T08:51:41.343Z,18.00
2018-04-18T08:52:41.333Z,14.80
2018-04-18T08:53:41.353Z,16.80
2018-04-18T08:54:41.349Z,17.50
2018-04-18T08:55:41.358Z,16.70
2018-04-18T08:56:41.364Z,13.70
2018-04-18T08:57:41.384Z,18.20
2018-04-18T08:58:41.394Z,13.70
2018-04-18T08:59:41.389Z,19.10
2018-04-18T09:00:41.399Z,15.00
2018-04-18T09:01:41.407Z,16.60
2018-04-18T09:02:41.426Z,14.00
2018-04-18T09:03:41.423Z,13.10
2018-04-18T09:04:41.440Z,12.20
2018-04-18T09:05:41.439Z,10.50
2018-04-18T09:06:41.462Z,12.80
2018-04-18T09:07:41.458Z,13.20
2018-04-18T09:08:41.469Z,13.50
2018-04-18T09:09:41.476Z,14.90
2018-04-18T09:10:41.499Z,9.70
2018-04-18T09:11:41.495Z,13.50
2018-04-18T09:12:41.503Z,13.60
2018-04-18T09:13:41.516Z,14.00
2018-04-18T09:14:41.522Z,15.30
2018-04-18T09:15:41.566Z,12.40
2018-04-18T09:16:41.556Z,11.80
2018-04-18T09:17:41.552Z,15.20
2018-04-18T09:18:41.573Z,11.50
2018-04-18T09:19:41.582Z,8.90
2018-04-18T09:20:41.590Z,10.00
2018-04-18T09:21:41.592Z,10.20
2018-04-18T09:22:41.598Z,10.80
2018-04-18T09:23:41.605Z,8.70
2018-04-18T09:24:41.625Z,12.30
2018-04-18T09:25:41.623Z,11.30
2018-04-18T09:26:41.638Z,11.40
2018-04-18T09:27:41.641Z,11.10
2018-04-18T09:28:41.651Z,9.60
2018-04-18T09:29:41.673Z,9.90
2018-04-18T09:30:41.683Z,10.00
2018-04-18T09:31:41.692Z,12.30
2018-04-18T09:32:41.715Z,11.70
2018-04-18T09:33:41.701Z,11.50
2018-04-18T09:34:41.711Z,13.30
2018-04-18T09:35:41.719Z,14.80
2018-04-18T09:36:41.740Z,12.30
2018-04-18T09:37:41.745Z,10.00
2018-04-18T09:38:41.763Z,10.50
2018-04-18T09:39:41.777Z,11.80
2018-04-18T09:40:41.791Z,13.90
2018-04-18T09:41:41.804Z,12.40
2018-04-18T09:42:41.794Z,12.20
2018-04-18T09:43:41.804Z,12.10
2018-04-18T09:44:41.813Z,10.90
2018-04-18T09:45:41.821Z,11.80
2018-04-18T09:46:41.834Z,11.70
2018-04-18T09:47:41.848Z,13.20
2018-04-18T09:48:41.858Z,10.60
2018-04-18T09:49:41.870Z,9.90
2018-04-18T09:50:41.889Z,10.00
2018-04-18T09:51:41.902Z,10.70
2018-04-18T09:52:41.910Z,9.80
2018-04-18T09:53:41.921Z,11.30
2018-04-18T09:54:41.926Z,11.50
2018-04-18T09:55:41.953Z,12.10
2018-04-18T09:56:41.948Z,14.50
2018-04-18T09:57:41.954Z,12.70
2018-04-18T09:58:41.998Z,12.80
2018-04-18T09:59:41.978Z,15.80
2018-04-18T10:00:42.000Z,13.60
2018-04-18T10:01:42.018Z,12.20
2018-04-18T10:02:42.021Z,11.50
2018-04-18T10:03:42.026Z,13.70
2018-04-18T10:04:42.048Z,13.20
2018-04-18T10:05:42.048Z,13.00
2018-04-18T10:06:42.059Z,11.20
2018-04-18T10:07:42.082Z,12.30
2018-04-18T10:08:42.092Z,13.50
2018-04-18T10:09:42.102Z,11.70
2018-04-18T10:10:42.107Z,14.40
2018-04-18T10:11:42.114Z,13.40
2018-04-18T10:12:42.125Z,14.70
2018-04-18T10:13:42.141Z,14.30
2018-04-18T10:14:42.168Z,12.40
2018-04-18T10:15:42.166Z,13.50
2018-04-18T10:16:42.172Z,13.50
2018-04-18T10:17:42.186Z,12.80
2018-04-18T10:18:42.201Z,18.50
2018-04-18T10:19:42.211Z,14.00
2018-04-18T10:20:42.219Z,14.10
2018-04-18T10:21:42.227Z,14.70
2018-04-18T10:22:42.240Z,12.30
2018-04-18T10:23:42.256Z,12.00
2018-04-18T10:24:42.277Z,15.10
2018-04-18T10:25:42.273Z,11.30
2018-04-18T10:26:42.296Z,13.50
2018-04-18T10:27:42.307Z,12.40
2018-04-18T10:28:42.320Z,11.70
2018-04-18T10:29:42.332Z,14.30
2018-04-18T10:30:42.328Z,12.80
2018-04-18T10:31:42.349Z,12.70
2018-04-18T10:32:42.350Z,12.60
2018-04-18T10:33:42.361Z,12.30
2018-04-18T10:34:42.375Z,13.80
2018-04-18T10:35:42.384Z,10.70
2018-04-18T10:36:42.395Z,12.40
2018-04-18T10:37:42.408Z,13.10
2018-04-18T10:38:42.419Z,14.00
2018-04-18T10:39:42.442Z,13.80
2018-04-18T10:40:42.442Z,10.30
2018-04-18T10:41:42.454Z,13.40
2018-04-18T10:42:42.475Z,12.50
2018-04-18T10:43:42.488Z,13.50
2018-04-18T10:44:42.487Z,12.00
2018-04-18T10:45:42.508Z,12.90
2018-04-18T10:46:42.515Z,16.20
2018-04-18T10:47:42.522Z,12.30
2018-04-18T10:48:42.565Z,11.20
2018-04-18T10:49:42.554Z,13.00
2018-04-18T10:50:42.555Z,12.90
2018-04-18T10:51:42.576Z,12.40
2018-04-18T10:52:42.577Z,12.00
2018-04-18T10:53:42.589Z,14.10
2018-04-18T10:54:42.601Z,11.00
2018-04-18T10:55:42.620Z,10.90
2018-04-18T10:56:42.624Z,9.50
2018-04-18T10:57:42.637Z,9.70
2018-04-18T10:58:42.648Z,11.40
2018-04-18T10:59:42.660Z,11.70
2018-04-18T11:00:42.684Z,10.30
2018-04-18T11:01:42.685Z,8.80
2018-04-18T11:02:42.710Z,10.60
2018-04-18T11:03:42.713Z,8.80
2018-04-18T11:04:42.717Z,10.50
2018-04-18T11:05:42.750Z,12.20
2018-04-18T11:06:42.748Z,10.30
2018-04-18T11:07:42.754Z,10.50
2018-04-18T11:08:42.766Z,11.00
2018-04-18T11:09:42.779Z,10.10
2018-04-18T11:10:42.793Z,9.30
2018-04-18T11:11:42.805Z,11.90
2018-04-18T11:12:42.819Z,10.50
2018-04-18T11:13:42.841Z,9.60
2018-04-18T11:14:42.837Z,7.80
2018-04-18T11:15:42.861Z,8.50
2018-04-18T11:16:42.872Z,10.30
2018-04-18T11:17:42.873Z,8.20
2018-04-18T11:18:42.948Z,7.60
2018-04-18T11:19:42.899Z,8.60
2018-04-18T11:20:42.911Z,7.90
2018-04-18T11:21:42.953Z,10.90
2018-04-18T11:22:42.968Z,8.60
2018-04-18T11:23:42.944Z,9.10
2018-04-18T11:24:42.959Z,9.50
2018-04-18T11:25:42.975Z,9.70
2018-04-18T11:26:42.981Z,10.50
2018-04-18T11:27:42.993Z,11.30
2018-04-18T11:28:43.016Z,10.30
2018-04-18T11:29:43.020Z,10.90
2018-04-18T11:30:43.048Z,9.50
2018-04-18T11:31:43.043Z,8.20
2018-04-18T11:32:43.070Z,9.10
2018-04-18T11:33:43.075Z,11.20
2018-04-18T11:34:43.099Z,10.40
2018-04-18T11:35:43.091Z,10.00
2018-04-18T11:36:43.103Z,11.50
2018-04-18T11:37:43.116Z,9.10
2018-04-18T11:38:43.126Z,11.40
2018-04-18T11:39:43.171Z,9.90
2018-04-18T11:40:43.158Z,10.20
2018-04-18T11:41:43.164Z,11.00
2018-04-18T11:42:43.178Z,10.30
2018-04-18T11:43:43.189Z,8.20
2018-04-18T11:44:43.204Z,9.60
2018-04-18T11:45:43.215Z,10.20
2018-04-18T11:46:43.227Z,13.90
2018-04-18T11:47:43.241Z,10.30
2018-04-18T11:48:43.261Z,10.30
2018-04-18T11:49:43.264Z,10.50
2018-04-18T11:50:43.293Z,11.70
2018-04-18T11:51:43.291Z,9.10
2018-04-18T11:52:43.314Z,12.00
2018-04-18T11:53:43.312Z,10.20
2018-04-18T11:54:43.334Z,11.00
2018-04-18T11:55:43.345Z,11.60
2018-04-18T11:56:43.406Z,10.50
2018-04-18T11:57:43.359Z,11.70
2018-04-18T11:58:43.371Z,9.40
2018-04-18T11:59:43.394Z,10.50
2018-04-18T12:00:43.394Z,11.30
2018-04-18T12:01:43.405Z,12.80
2018-04-18T12:02:43.418Z,11.10
2018-04-18T12:03:43.443Z,11.20
2018-04-18T12:04:43.444Z,11.60
2018-04-18T12:05:43.453Z,14.50
2018-04-18T12:06:43.462Z,9.70
2018-04-18T12:07:43.481Z,12.00
2018-04-18T12:08:43.485Z,11.70
2018-04-18T12:09:43.518Z,9.80
2018-04-18T12:10:43.509Z,10.10
2018-04-18T12:11:43.528Z,10.40
2018-04-18T12:12:43.532Z,10.20
2018-04-18T12:13:43.546Z,11.50
2018-04-18T12:14:43.560Z,11.70
2018-04-18T12:15:43.578Z,11.90
2018-04-18T12:16:43.588Z,12.90
2018-04-18T12:17:43.600Z,13.00
2018-04-18T12:18:43.612Z,13.20
2018-04-18T12:19:43.611Z,13.20
2018-04-18T12:20:43.628Z,14.50
2018-04-18T12:21:43.632Z,13.20
2018-04-18T12:22:43.643Z,13.00
2018-04-18T12:23:43.671Z,13.10
2018-04-18T12:24:43.663Z,13.20
2018-04-18T12:25:43.678Z,15.40
2018-04-18T12:26:43.708Z,14.30
2018-04-18T12:27:43.740Z,12.90
2018-04-18T12:28:43.705Z,14.40
2018-04-18T12:29:43.720Z,14.70
2018-04-18T12:30:43.728Z,14.70
2018-04-18T12:31:43.748Z,14.20
2018-04-18T12:32:43.746Z,16.30
2018-04-18T12:33:43.807Z,15.70
2018-04-18T12:34:43.770Z,16.40
2018-04-18T12:35:43.785Z,21.20
2018-04-18T12:36:43.808Z,22.50
2018-04-18T12:37:43.801Z,14.20
2018-04-18T12:38:43.811Z,17.20
2018-04-18T12:39:43.824Z,18.40
2018-04-18T12:40:43.829Z,15.40
2018-04-18T12:41:43.842Z,15.00
2018-04-18T12:42:43.850Z,11.80
2018-04-18T12:43:43.863Z,13.20
2018-04-18T12:44:43.882Z,12.00
2018-04-18T12:45:43.894Z,12.40
2018-04-18T12:46:43.893Z,14.80
2018-04-18T12:47:43.904Z,13.90
2018-04-18T12:48:43.913Z,12.00
2018-04-18T12:49:43.942Z,14.20
2018-04-18T12:50:43.933Z,15.10
2018-04-18T12:51:43.941Z,14.00
2018-04-18T12:52:43.951Z,14.40
2018-04-18T12:53:43.976Z,12.30